sensor_id;sensor_type;location;lat;lon;timestamp;temperature;humidity
42755;DHT22;28407;51.830;5.684;2023-02-13T00:01:13;9.20;81.30
42755;DHT22;28407;51.830;5.684;2023-02-13T00:03:14;9.20;81.30
42755;DHT22;28407;51.830;5.684;2023-02-13T00:05:14;9.20;81.30
42755;DHT22;28407;51.830;5.684;2023-02-13T00:07:15;9.20;81.30
42755;DHT22;28407;51.830;5.684;2023-02-13T00:09:16;9.20;81.40
42755;DHT22;28407;51.830;5.684;2023-02-13T00:11:16;9.20;81.40
42755;DHT22;28407;51.830;5.684;2023-02-13T00:13:17;9.20;81.40
42755;DHT22;28407;51.830;5.684;2023-02-13T00:15:17;9.20;81.40
42755;DHT22;28407;51.830;5.684;2023-02-13T00:17:18;9.20;81.40
42755;DHT22;28407;51.830;5.684;2023-02-13T00:19:19;9.20;81.40
42755;DHT22;28407;51.830;5.684;2023-02-13T00:21:19;9.20;81.50
42755;DHT22;28407;51.830;5.684;2023-02-13T00:23:20;9.10;81.40
42755;DHT22;28407;51.830;5.684;2023-02-13T00:25:20;9.20;81.40
42755;DHT22;28407;51.830;5.684;2023-02-13T00:27:22;9.20;81.40
42755;DHT22;28407;51.830;5.684;2023-02-13T00:29:23;9.20;81.50
42755;DHT22;28407;51.830;5.684;2023-02-13T00:31:23;9.20;81.40
42755;DHT22;28407;51.830;5.684;2023-02-13T00:33:24;9.20;81.30
42755;DHT22;28407;51.830;5.684;2023-02-13T00:35:25;9.20;81.40
42755;DHT22;28407;51.830;5.684;2023-02-13T00:37:26;9.10;81.40
42755;DHT22;28407;51.830;5.684;2023-02-13T00:39:27;9.10;81.40
42755;DHT22;28407;51.830;5.684;2023-02-13T00:41:27;9.10;81.40
42755;DHT22;28407;51.830;5.684;2023-02-13T00:43:28;9.10;81.40
42755;DHT22;28407;51.830;5.684;2023-02-13T00:45:30;9.10;81.50
42755;DHT22;28407;51.830;5.684;2023-02-13T00:47:31;9.10;81.50
42755;DHT22;28407;51.830;5.684;2023-02-13T00:49:31;9.10;81.40
42755;DHT22;28407;51.830;5.684;2023-02-13T00:51:35;9.10;81.50
42755;DHT22;28407;51.830;5.684;2023-02-13T00:53:36;9.10;81.60
42755;DHT22;28407;51.830;5.684;2023-02-13T00:55:37;9.10;81.40
42755;DHT22;28407;51.830;5.684;2023-02-13T00:57:37;9.10;81.50
42755;DHT22;28407;51.830;5.684;2023-02-13T00:59:38;9.10;81.50
42755;DHT22;28407;51.830;5.684;2023-02-13T01:01:39;9.10;81.50
42755;DHT22;28407;51.830;5.684;2023-02-13T01:03:39;9.10;81.50
42755;DHT22;28407;51.830;5.684;2023-02-13T01:05:41;9.10;81.50
42755;DHT22;28407;51.830;5.684;2023-02-13T01:07:42;9.10;81.50
42755;DHT22;28407;51.830;5.684;2023-02-13T01:09:42;9.10;81.50
42755;DHT22;28407;51.830;5.684;2023-02-13T01:11:43;9.10;81.50
42755;DHT22;28407;51.830;5.684;2023-02-13T01:13:44;9.10;81.50
42755;DHT22;28407;51.830;5.684;2023-02-13T01:15:46;9.10;81.50
42755;DHT22;28407;51.830;5.684;2023-02-13T01:17:47;9.10;81.50
42755;DHT22;28407;51.830;5.684;2023-02-13T01:19:48;9.10;81.50
42755;DHT22;28407;51.830;5.684;2023-02-13T01:21:49;9.10;81.60
42755;DHT22;28407;51.830;5.684;2023-02-13T01:23:52;9.10;81.60
42755;DHT22;28407;51.830;5.684;2023-02-13T01:25:54;9.10;81.60
42755;DHT22;28407;51.830;5.684;2023-02-13T01:27:54;9.00;81.50
42755;DHT22;28407;51.830;5.684;2023-02-13T01:29:55;9.00;81.60
42755;DHT22;28407;51.830;5.684;2023-02-13T01:31:57;9.10;81.60
42755;DHT22;28407;51.830;5.684;2023-02-13T01:34:02;9.10;81.60
42755;DHT22;28407;51.830;5.684;2023-02-13T01:36:08;9.00;81.50
42755;DHT22;28407;51.830;5.684;2023-02-13T01:38:10;9.10;81.60
42755;DHT22;28407;51.830;5.684;2023-02-13T01:40:13;9.10;81.60
42755;DHT22;28407;51.830;5.684;2023-02-13T01:42:16;9.10;81.70
42755;DHT22;28407;51.830;5.684;2023-02-13T01:44:50;9.10;81.70
42755;DHT22;28407;51.830;5.684;2023-02-13T01:46:50;9.10;81.70
42755;DHT22;28407;51.830;5.684;2023-02-13T01:48:53;9.00;81.60
42755;DHT22;28407;51.830;5.684;2023-02-13T01:51:00;9.00;81.60
42755;DHT22;28407;51.830;5.684;2023-02-13T01:53:06;9.00;81.70
42755;DHT22;28407;51.830;5.684;2023-02-13T01:55:08;9.10;81.70
42755;DHT22;28407;51.830;5.684;2023-02-13T01:57:17;9.00;81.70
42755;DHT22;28407;51.830;5.684;2023-02-13T01:59:22;9.10;81.70
42755;DHT22;28407;51.830;5.684;2023-02-13T02:01:26;9.00;81.60
42755;DHT22;28407;51.830;5.684;2023-02-13T02:05:43;9.00;81.80
42755;DHT22;28407;51.830;5.684;2023-02-13T02:07:44;9.00;81.80
42755;DHT22;28407;51.830;5.684;2023-02-13T02:09:49;9.00;81.90
42755;DHT22;28407;51.830;5.684;2023-02-13T02:11:58;9.00;81.90
42755;DHT22;28407;51.830;5.684;2023-02-13T02:14:00;9.00;81.90
42755;DHT22;28407;51.830;5.684;2023-02-13T02:16:06;9.00;81.90
42755;DHT22;28407;51.830;5.684;2023-02-13T02:18:18;9.00;81.90
42755;DHT22;28407;51.830;5.684;2023-02-13T02:30:39;9.00;82.00
42755;DHT22;28407;51.830;5.684;2023-02-13T02:33:06;9.00;82.00
42755;DHT22;28407;51.830;5.684;2023-02-13T02:35:22;9.00;82.00
42755;DHT22;28407;51.830;5.684;2023-02-13T02:40:18;9.00;82.10
42755;DHT22;28407;51.830;5.684;2023-02-13T02:42:45;8.90;82.00
42755;DHT22;28407;51.830;5.684;2023-02-13T02:47:53;8.90;82.00
42755;DHT22;28407;51.830;5.684;2023-02-13T02:50:25;8.90;82.00
42755;DHT22;28407;51.830;5.684;2023-02-13T02:53:10;8.90;82.00
42755;DHT22;28407;51.830;5.684;2023-02-13T02:57:48;8.90;82.10
42755;DHT22;28407;51.830;5.684;2023-02-13T03:00:10;9.00;82.20
42755;DHT22;28407;51.830;5.684;2023-02-13T03:02:29;8.90;82.10
42755;DHT22;28407;51.830;5.684;2023-02-13T03:04:53;8.90;82.10
42755;DHT22;28407;51.830;5.684;2023-02-13T03:07:16;8.90;82.10
42755;DHT22;28407;51.830;5.684;2023-02-13T03:09:22;8.90;82.20
42755;DHT22;28407;51.830;5.684;2023-02-13T03:11:44;8.90;82.20
42755;DHT22;28407;51.830;5.684;2023-02-13T03:14:08;8.90;82.20
42755;DHT22;28407;51.830;5.684;2023-02-13T03:16:15;8.90;82.20
42755;DHT22;28407;51.830;5.684;2023-02-13T03:18:38;9.00;82.30
42755;DHT22;28407;51.830;5.684;2023-02-13T03:21:09;9.00;82.30
42755;DHT22;28407;51.830;5.684;2023-02-13T03:24:04;9.00;82.40
42755;DHT22;28407;51.830;5.684;2023-02-13T03:28:54;9.00;82.40
42755;DHT22;28407;51.830;5.684;2023-02-13T03:31:30;8.90;82.30
42755;DHT22;28407;51.830;5.684;2023-02-13T03:34:01;8.90;82.30
42755;DHT22;28407;51.830;5.684;2023-02-13T03:36:40;9.00;82.40
42755;DHT22;28407;51.830;5.684;2023-02-13T03:41:27;8.90;82.30
42755;DHT22;28407;51.830;5.684;2023-02-13T03:45:52;8.90;82.40
42755;DHT22;28407;51.830;5.684;2023-02-13T03:47:56;8.90;82.40
42755;DHT22;28407;51.830;5.684;2023-02-13T03:49:58;8.90;82.50
42755;DHT22;28407;51.830;5.684;2023-02-13T03:54:22;8.90;82.50
42755;DHT22;28407;51.830;5.684;2023-02-13T03:56:43;8.90;82.50
42755;DHT22;28407;51.830;5.684;2023-02-13T03:59:04;8.90;82.50
42755;DHT22;28407;51.830;5.684;2023-02-13T04:01:21;8.90;82.50
42755;DHT22;28407;51.830;5.684;2023-02-13T04:03:34;8.90;82.60
42755;DHT22;28407;51.830;5.684;2023-02-13T04:05:39;8.90;82.60
42755;DHT22;28407;51.830;5.684;2023-02-13T04:07:41;8.90;82.60
42755;DHT22;28407;51.830;5.684;2023-02-13T04:09:42;8.90;82.70
42755;DHT22;28407;51.830;5.684;2023-02-13T04:14:15;8.90;82.70
42755;DHT22;28407;51.830;5.684;2023-02-13T04:16:28;8.90;82.60
42755;DHT22;28407;51.830;5.684;2023-02-13T04:18:32;8.90;82.70
42755;DHT22;28407;51.830;5.684;2023-02-13T04:20:33;8.90;82.70
42755;DHT22;28407;51.830;5.684;2023-02-13T04:22:33;8.90;82.70
42755;DHT22;28407;51.830;5.684;2023-02-13T04:24:34;8.90;82.70
42755;DHT22;28407;51.830;5.684;2023-02-13T04:26:41;8.90;82.80
42755;DHT22;28407;51.830;5.684;2023-02-13T04:28:42;8.90;82.80
42755;DHT22;28407;51.830;5.684;2023-02-13T04:30:43;8.90;83.50
42755;DHT22;28407;51.830;5.684;2023-02-13T04:32:44;8.90;82.80
42755;DHT22;28407;51.830;5.684;2023-02-13T04:34:44;8.90;82.80
42755;DHT22;28407;51.830;5.684;2023-02-13T04:36:45;8.90;82.80
42755;DHT22;28407;51.830;5.684;2023-02-13T04:38:45;8.90;82.80
42755;DHT22;28407;51.830;5.684;2023-02-13T04:40:46;8.90;82.90
42755;DHT22;28407;51.830;5.684;2023-02-13T04:42:47;9.00;82.90
42755;DHT22;28407;51.830;5.684;2023-02-13T04:44:48;8.90;82.90
42755;DHT22;28407;51.830;5.684;2023-02-13T04:46:49;9.00;82.90
42755;DHT22;28407;51.830;5.684;2023-02-13T04:48:49;8.90;82.90
42755;DHT22;28407;51.830;5.684;2023-02-13T04:50:50;8.90;82.90
42755;DHT22;28407;51.830;5.684;2023-02-13T04:52:55;8.90;82.90
42755;DHT22;28407;51.830;5.684;2023-02-13T04:54:56;8.90;83.00
42755;DHT22;28407;51.830;5.684;2023-02-13T04:56:57;8.90;83.00
42755;DHT22;28407;51.830;5.684;2023-02-13T04:58:57;8.90;83.10
42755;DHT22;28407;51.830;5.684;2023-02-13T05:00:58;8.90;83.10
42755;DHT22;28407;51.830;5.684;2023-02-13T05:03:07;8.90;83.40
42755;DHT22;28407;51.830;5.684;2023-02-13T05:05:07;8.80;83.10
42755;DHT22;28407;51.830;5.684;2023-02-13T05:07:08;8.80;83.10
42755;DHT22;28407;51.830;5.684;2023-02-13T05:09:09;8.80;83.10
42755;DHT22;28407;51.830;5.684;2023-02-13T05:11:10;8.80;83.10
42755;DHT22;28407;51.830;5.684;2023-02-13T05:13:11;8.80;83.20
42755;DHT22;28407;51.830;5.684;2023-02-13T05:15:11;8.80;83.20
42755;DHT22;28407;51.830;5.684;2023-02-13T05:17:12;8.80;83.30
42755;DHT22;28407;51.830;5.684;2023-02-13T05:19:12;8.80;83.30
42755;DHT22;28407;51.830;5.684;2023-02-13T05:21:13;8.70;83.20
42755;DHT22;28407;51.830;5.684;2023-02-13T05:23:32;8.80;83.30
42755;DHT22;28407;51.830;5.684;2023-02-13T05:25:33;8.70;83.20
42755;DHT22;28407;51.830;5.684;2023-02-13T05:27:34;8.80;83.30
42755;DHT22;28407;51.830;5.684;2023-02-13T05:29:35;8.70;83.30
42755;DHT22;28407;51.830;5.684;2023-02-13T05:31:35;8.70;83.30
42755;DHT22;28407;51.830;5.684;2023-02-13T05:33:36;8.70;83.30
42755;DHT22;28407;51.830;5.684;2023-02-13T05:35:36;8.70;83.40
42755;DHT22;28407;51.830;5.684;2023-02-13T05:37:37;8.60;83.30
42755;DHT22;28407;51.830;5.684;2023-02-13T05:39:38;8.60;83.40
42755;DHT22;28407;51.830;5.684;2023-02-13T05:41:38;8.60;83.40
42755;DHT22;28407;51.830;5.684;2023-02-13T05:43:39;8.50;83.40
42755;DHT22;28407;51.830;5.684;2023-02-13T05:45:39;8.50;83.40
42755;DHT22;28407;51.830;5.684;2023-02-13T05:47:40;8.40;83.50
42755;DHT22;28407;51.830;5.684;2023-02-13T05:49:40;8.40;83.40
42755;DHT22;28407;51.830;5.684;2023-02-13T05:51:42;8.40;83.50
42755;DHT22;28407;51.830;5.684;2023-02-13T05:53:42;8.40;83.50
42755;DHT22;28407;51.830;5.684;2023-02-13T05:55:43;8.30;84.10
42755;DHT22;28407;51.830;5.684;2023-02-13T05:57:43;8.30;83.50
42755;DHT22;28407;51.830;5.684;2023-02-13T05:59:44;8.30;83.50
42755;DHT22;28407;51.830;5.684;2023-02-13T06:01:44;8.30;83.50
42755;DHT22;28407;51.830;5.684;2023-02-13T06:03:45;8.20;83.40
42755;DHT22;28407;51.830;5.684;2023-02-13T06:05:46;8.20;83.50
42755;DHT22;28407;51.830;5.684;2023-02-13T06:07:46;8.10;83.40
42755;DHT22;28407;51.830;5.684;2023-02-13T06:09:47;8.10;83.40
42755;DHT22;28407;51.830;5.684;2023-02-13T06:11:48;8.10;83.40
42755;DHT22;28407;51.830;5.684;2023-02-13T06:13:48;8.10;83.40
42755;DHT22;28407;51.830;5.684;2023-02-13T06:15:49;8.10;83.50
42755;DHT22;28407;51.830;5.684;2023-02-13T06:17:50;8.10;83.50
42755;DHT22;28407;51.830;5.684;2023-02-13T06:19:50;8.10;83.50
42755;DHT22;28407;51.830;5.684;2023-02-13T06:21:51;8.00;83.40
42755;DHT22;28407;51.830;5.684;2023-02-13T06:23:51;8.00;83.40
42755;DHT22;28407;51.830;5.684;2023-02-13T06:25:52;8.10;83.50
42755;DHT22;28407;51.830;5.684;2023-02-13T06:27:53;8.00;83.40
42755;DHT22;28407;51.830;5.684;2023-02-13T06:29:54;8.10;83.40
42755;DHT22;28407;51.830;5.684;2023-02-13T06:31:54;8.10;83.40
42755;DHT22;28407;51.830;5.684;2023-02-13T06:33:55;8.10;83.40
42755;DHT22;28407;51.830;5.684;2023-02-13T06:35:55;8.10;83.40
42755;DHT22;28407;51.830;5.684;2023-02-13T06:37:56;8.00;83.40
42755;DHT22;28407;51.830;5.684;2023-02-13T06:39:57;8.10;83.50
42755;DHT22;28407;51.830;5.684;2023-02-13T06:41:57;8.00;83.40
42755;DHT22;28407;51.830;5.684;2023-02-13T06:43:58;8.00;83.40
42755;DHT22;28407;51.830;5.684;2023-02-13T06:45:58;8.00;83.40
42755;DHT22;28407;51.830;5.684;2023-02-13T06:47:59;7.90;83.40
42755;DHT22;28407;51.830;5.684;2023-02-13T06:49:59;7.90;83.40
42755;DHT22;28407;51.830;5.684;2023-02-13T06:52:00;7.90;83.40
42755;DHT22;28407;51.830;5.684;2023-02-13T06:54:00;7.90;83.40
42755;DHT22;28407;51.830;5.684;2023-02-13T06:56:03;7.90;83.50
42755;DHT22;28407;51.830;5.684;2023-02-13T06:58:05;7.80;83.40
42755;DHT22;28407;51.830;5.684;2023-02-13T07:00:07;7.80;83.40
42755;DHT22;28407;51.830;5.684;2023-02-13T07:02:11;7.80;83.40
42755;DHT22;28407;51.830;5.684;2023-02-13T07:04:12;7.80;83.40
42755;DHT22;28407;51.830;5.684;2023-02-13T07:06:19;7.80;83.40
42755;DHT22;28407;51.830;5.684;2023-02-13T07:08:20;7.80;83.40
42755;DHT22;28407;51.830;5.684;2023-02-13T07:10:21;7.70;83.40
42755;DHT22;28407;51.830;5.684;2023-02-13T07:12:22;7.70;83.40
42755;DHT22;28407;51.830;5.684;2023-02-13T07:14:22;7.70;83.40
42755;DHT22;28407;51.830;5.684;2023-02-13T07:16:23;7.60;83.30
42755;DHT22;28407;51.830;5.684;2023-02-13T07:18:23;7.60;83.40
42755;DHT22;28407;51.830;5.684;2023-02-13T07:20:25;7.60;83.30
42755;DHT22;28407;51.830;5.684;2023-02-13T07:22:26;7.60;83.30
42755;DHT22;28407;51.830;5.684;2023-02-13T07:24:26;7.50;83.30
42755;DHT22;28407;51.830;5.684;2023-02-13T07:26:27;7.50;83.30
42755;DHT22;28407;51.830;5.684;2023-02-13T07:28:28;7.50;83.30
42755;DHT22;28407;51.830;5.684;2023-02-13T07:30:30;7.50;83.30
42755;DHT22;28407;51.830;5.684;2023-02-13T07:32:31;7.50;83.30
42755;DHT22;28407;51.830;5.684;2023-02-13T07:34:32;7.50;83.30
42755;DHT22;28407;51.830;5.684;2023-02-13T07:36:32;7.40;83.30
42755;DHT22;28407;51.830;5.684;2023-02-13T07:38:33;7.40;83.30
42755;DHT22;28407;51.830;5.684;2023-02-13T07:40:33;7.40;83.30
42755;DHT22;28407;51.830;5.684;2023-02-13T07:42:34;7.40;83.30
42755;DHT22;28407;51.830;5.684;2023-02-13T07:44:35;7.40;83.30
42755;DHT22;28407;51.830;5.684;2023-02-13T07:46:36;7.40;83.20
42755;DHT22;28407;51.830;5.684;2023-02-13T07:48:37;7.40;83.30
42755;DHT22;28407;51.830;5.684;2023-02-13T07:50:37;7.40;83.20
42755;DHT22;28407;51.830;5.684;2023-02-13T07:52:38;7.40;83.20
42755;DHT22;28407;51.830;5.684;2023-02-13T07:54:38;7.40;83.30
42755;DHT22;28407;51.830;5.684;2023-02-13T07:56:46;7.40;83.20
42755;DHT22;28407;51.830;5.684;2023-02-13T07:58:47;7.40;83.20
42755;DHT22;28407;51.830;5.684;2023-02-13T08:00:47;7.40;83.30
42755;DHT22;28407;51.830;5.684;2023-02-13T08:02:48;7.50;83.30
42755;DHT22;28407;51.830;5.684;2023-02-13T08:04:49;7.50;83.30
42755;DHT22;28407;51.830;5.684;2023-02-13T08:06:49;7.50;83.30
42755;DHT22;28407;51.830;5.684;2023-02-13T08:08:50;7.50;83.30
42755;DHT22;28407;51.830;5.684;2023-02-13T08:11:32;7.60;83.30
42755;DHT22;28407;51.830;5.684;2023-02-13T08:13:51;7.60;83.40
42755;DHT22;28407;51.830;5.684;2023-02-13T08:15:51;7.60;83.20
42755;DHT22;28407;51.830;5.684;2023-02-13T08:17:52;7.70;83.30
42755;DHT22;28407;51.830;5.684;2023-02-13T08:19:53;7.70;83.30
42755;DHT22;28407;51.830;5.684;2023-02-13T08:21:54;7.70;83.30
42755;DHT22;28407;51.830;5.684;2023-02-13T08:23:54;7.80;83.40
42755;DHT22;28407;51.830;5.684;2023-02-13T08:25:59;7.80;83.40
42755;DHT22;28407;51.830;5.684;2023-02-13T08:28:00;7.90;83.50
42755;DHT22;28407;51.830;5.684;2023-02-13T08:30:02;7.90;83.40
42755;DHT22;28407;51.830;5.684;2023-02-13T08:32:03;7.90;83.50
42755;DHT22;28407;51.830;5.684;2023-02-13T08:34:03;8.00;83.50
42755;DHT22;28407;51.830;5.684;2023-02-13T08:36:04;8.00;83.50
42755;DHT22;28407;51.830;5.684;2023-02-13T08:38:05;8.00;83.50
42755;DHT22;28407;51.830;5.684;2023-02-13T08:40:06;8.00;83.50
42755;DHT22;28407;51.830;5.684;2023-02-13T08:42:09;8.10;83.50
42755;DHT22;28407;51.830;5.684;2023-02-13T08:44:10;8.10;83.60
42755;DHT22;28407;51.830;5.684;2023-02-13T08:46:11;8.10;83.60
42755;DHT22;28407;51.830;5.684;2023-02-13T08:48:11;8.20;83.70
42755;DHT22;28407;51.830;5.684;2023-02-13T08:50:12;8.20;83.70
42755;DHT22;28407;51.830;5.684;2023-02-13T08:52:12;8.20;83.70
42755;DHT22;28407;51.830;5.684;2023-02-13T08:54:13;8.30;83.90
42755;DHT22;28407;51.830;5.684;2023-02-13T08:56:14;8.30;83.90
42755;DHT22;28407;51.830;5.684;2023-02-13T08:58:14;8.30;83.90
42755;DHT22;28407;51.830;5.684;2023-02-13T09:00:15;8.30;83.90
42755;DHT22;28407;51.830;5.684;2023-02-13T09:02:15;8.30;83.90
42755;DHT22;28407;51.830;5.684;2023-02-13T09:04:16;8.40;84.00
42755;DHT22;28407;51.830;5.684;2023-02-13T09:06:17;8.40;84.00
42755;DHT22;28407;51.830;5.684;2023-02-13T09:08:18;8.40;84.00
42755;DHT22;28407;51.830;5.684;2023-02-13T09:10:19;8.40;84.00
42755;DHT22;28407;51.830;5.684;2023-02-13T09:12:19;8.40;84.00
42755;DHT22;28407;51.830;5.684;2023-02-13T09:14:20;8.40;84.10
42755;DHT22;28407;51.830;5.684;2023-02-13T09:16:21;8.50;84.10
42755;DHT22;28407;51.830;5.684;2023-02-13T09:18:22;8.50;84.20
42755;DHT22;28407;51.830;5.684;2023-02-13T09:20:22;8.60;84.20
42755;DHT22;28407;51.830;5.684;2023-02-13T09:22:23;8.60;84.20
42755;DHT22;28407;51.830;5.684;2023-02-13T09:24:24;8.60;84.20
42755;DHT22;28407;51.830;5.684;2023-02-13T09:26:25;8.60;84.10
42755;DHT22;28407;51.830;5.684;2023-02-13T09:28:26;8.70;84.20
42755;DHT22;28407;51.830;5.684;2023-02-13T09:30:26;8.70;84.10
42755;DHT22;28407;51.830;5.684;2023-02-13T09:32:27;8.70;84.10
42755;DHT22;28407;51.830;5.684;2023-02-13T09:34:31;8.70;84.10
42755;DHT22;28407;51.830;5.684;2023-02-13T09:36:31;8.80;84.20
42755;DHT22;28407;51.830;5.684;2023-02-13T09:38:33;8.80;84.10
42755;DHT22;28407;51.830;5.684;2023-02-13T09:42:43;8.80;84.10
42755;DHT22;28407;51.830;5.684;2023-02-13T09:44:45;8.90;84.10
42755;DHT22;28407;51.830;5.684;2023-02-13T09:46:46;8.90;84.00
42755;DHT22;28407;51.830;5.684;2023-02-13T09:48:49;8.90;83.90
42755;DHT22;28407;51.830;5.684;2023-02-13T09:50:50;8.90;84.00
42755;DHT22;28407;51.830;5.684;2023-02-13T09:52:53;8.90;84.00
42755;DHT22;28407;51.830;5.684;2023-02-13T09:54:54;9.00;84.00
42755;DHT22;28407;51.830;5.684;2023-02-13T09:56:58;9.00;84.00
42755;DHT22;28407;51.830;5.684;2023-02-13T10:01:48;9.00;84.00
42755;DHT22;28407;51.830;5.684;2023-02-13T10:06:00;9.10;84.00
42755;DHT22;28407;51.830;5.684;2023-02-13T10:12:38;9.20;84.00
42755;DHT22;28407;51.830;5.684;2023-02-13T10:17:08;9.20;83.90
42755;DHT22;28407;51.830;5.684;2023-02-13T10:19:31;9.20;83.80
42755;DHT22;28407;51.830;5.684;2023-02-13T10:21:40;9.30;84.00
42755;DHT22;28407;51.830;5.684;2023-02-13T10:24:05;9.30;83.80
42755;DHT22;28407;51.830;5.684;2023-02-13T10:26:11;9.30;83.80
42755;DHT22;28407;51.830;5.684;2023-02-13T10:28:25;9.40;83.80
42755;DHT22;28407;51.830;5.684;2023-02-13T10:30:40;9.40;83.80
42755;DHT22;28407;51.830;5.684;2023-02-13T10:35:20;9.40;83.80
42755;DHT22;28407;51.830;5.684;2023-02-13T10:37:22;9.40;83.70
42755;DHT22;28407;51.830;5.684;2023-02-13T10:39:28;9.50;83.70
42755;DHT22;28407;51.830;5.684;2023-02-13T10:48:25;9.50;83.60
42755;DHT22;28407;51.830;5.684;2023-02-13T10:52:56;9.60;83.60
42755;DHT22;28407;51.830;5.684;2023-02-13T10:55:22;9.60;83.60
42755;DHT22;28407;51.830;5.684;2023-02-13T11:00:23;9.70;83.60
42755;DHT22;28407;51.830;5.684;2023-02-13T11:02:29;9.70;83.50
42755;DHT22;28407;51.830;5.684;2023-02-13T11:04:34;9.70;83.50
42755;DHT22;28407;51.830;5.684;2023-02-13T11:06:37;9.70;83.40
42755;DHT22;28407;51.830;5.684;2023-02-13T11:08:43;9.80;83.40
42755;DHT22;28407;51.830;5.684;2023-02-13T11:10:45;9.80;83.30
42755;DHT22;28407;51.830;5.684;2023-02-13T11:12:46;9.90;83.30
42755;DHT22;28407;51.830;5.684;2023-02-13T11:14:55;9.90;83.20
42755;DHT22;28407;51.830;5.684;2023-02-13T11:17:05;9.90;83.10
42755;DHT22;28407;51.830;5.684;2023-02-13T11:19:33;10.00;83.20
42755;DHT22;28407;51.830;5.684;2023-02-13T11:21:35;10.00;83.10
42755;DHT22;28407;51.830;5.684;2023-02-13T11:23:45;10.10;83.10
42755;DHT22;28407;51.830;5.684;2023-02-13T11:26:21;10.10;83.00
42755;DHT22;28407;51.830;5.684;2023-02-13T11:28:23;10.10;83.00
42755;DHT22;28407;51.830;5.684;2023-02-13T11:30:32;10.10;82.90
42755;DHT22;28407;51.830;5.684;2023-02-13T11:32:34;10.10;82.80
42755;DHT22;28407;51.830;5.684;2023-02-13T11:34:34;10.20;82.80
42755;DHT22;28407;51.830;5.684;2023-02-13T11:36:35;10.20;82.80
42755;DHT22;28407;51.830;5.684;2023-02-13T11:38:36;10.30;82.80
42755;DHT22;28407;51.830;5.684;2023-02-13T11:40:36;10.30;82.70
42755;DHT22;28407;51.830;5.684;2023-02-13T11:42:41;10.30;82.70
42755;DHT22;28407;51.830;5.684;2023-02-13T11:44:47;10.40;82.60
42755;DHT22;28407;51.830;5.684;2023-02-13T11:46:50;10.40;82.60
42755;DHT22;28407;51.830;5.684;2023-02-13T11:49:03;10.40;82.50
42755;DHT22;28407;51.830;5.684;2023-02-13T11:51:04;10.40;82.40
42755;DHT22;28407;51.830;5.684;2023-02-13T11:53:18;10.50;82.40
42755;DHT22;28407;51.830;5.684;2023-02-13T11:55:30;10.50;82.30
42755;DHT22;28407;51.830;5.684;2023-02-13T11:57:35;10.60;82.20
42755;DHT22;28407;51.830;5.684;2023-02-13T11:59:42;10.60;82.10
42755;DHT22;28407;51.830;5.684;2023-02-13T12:01:43;10.70;82.00
42755;DHT22;28407;51.830;5.684;2023-02-13T12:04:13;10.70;81.90
42755;DHT22;28407;51.830;5.684;2023-02-13T12:06:17;10.80;81.90
42755;DHT22;28407;51.830;5.684;2023-02-13T12:08:17;10.80;81.70
42755;DHT22;28407;51.830;5.684;2023-02-13T12:12:48;10.90;81.50
42755;DHT22;28407;51.830;5.684;2023-02-13T12:14:52;11.00;81.40
42755;DHT22;28407;51.830;5.684;2023-02-13T12:16:59;11.00;81.30
42755;DHT22;28407;51.830;5.684;2023-02-13T12:19:04;11.10;81.20
42755;DHT22;28407;51.830;5.684;2023-02-13T12:23:37;11.20;80.90
42755;DHT22;28407;51.830;5.684;2023-02-13T12:31:14;11.40;80.50
42755;DHT22;28407;51.830;5.684;2023-02-13T12:37:51;11.60;80.20
42755;DHT22;28407;51.830;5.684;2023-02-13T12:43:03;11.70;79.80
42755;DHT22;28407;51.830;5.684;2023-02-13T12:53:46;12.00;79.10
42755;DHT22;28407;51.830;5.684;2023-02-13T13:00:59;12.20;78.70
42755;DHT22;28407;51.830;5.684;2023-02-13T13:10:35;12.40;78.40
42755;DHT22;28407;51.830;5.684;2023-02-13T13:17:18;12.60;78.00
42755;DHT22;28407;51.830;5.684;2023-02-13T13:24:30;12.70;77.60
42755;DHT22;28407;51.830;5.684;2023-02-13T13:26:42;12.80;77.50
42755;DHT22;28407;51.830;5.684;2023-02-13T13:28:47;12.80;77.50
42755;DHT22;28407;51.830;5.684;2023-02-13T13:30:49;12.80;77.50
42755;DHT22;28407;51.830;5.684;2023-02-13T13:33:08;12.90;77.40
42755;DHT22;28407;51.830;5.684;2023-02-13T13:35:14;12.90;77.30
42755;DHT22;28407;51.830;5.684;2023-02-13T13:37:34;13.00;77.20
42755;DHT22;28407;51.830;5.684;2023-02-13T13:39:44;13.00;77.10
42755;DHT22;28407;51.830;5.684;2023-02-13T13:41:50;13.00;77.10
42755;DHT22;28407;51.830;5.684;2023-02-13T13:50:42;13.20;76.70
42755;DHT22;28407;51.830;5.684;2023-02-13T13:57:58;13.30;76.40
42755;DHT22;28407;51.830;5.684;2023-02-13T14:04:37;13.30;76.20
42755;DHT22;28407;51.830;5.684;2023-02-13T14:09:05;13.40;76.00
42755;DHT22;28407;51.830;5.684;2023-02-13T14:13:39;13.40;75.90
42755;DHT22;28407;51.830;5.684;2023-02-13T14:19:51;13.30;75.80
42755;DHT22;28407;51.830;5.684;2023-02-13T14:21:53;13.40;75.90
42755;DHT22;28407;51.830;5.684;2023-02-13T14:23:56;13.30;75.90
42755;DHT22;28407;51.830;5.684;2023-02-13T14:28:33;13.40;75.80
42755;DHT22;28407;51.830;5.684;2023-02-13T14:30:37;13.40;75.70
42755;DHT22;28407;51.830;5.684;2023-02-13T14:32:39;13.30;75.60
42755;DHT22;28407;51.830;5.684;2023-02-13T14:34:40;13.40;75.60
42755;DHT22;28407;51.830;5.684;2023-02-13T14:36:59;13.40;75.50
42755;DHT22;28407;51.830;5.684;2023-02-13T14:39:05;13.40;75.40
42755;DHT22;28407;51.830;5.684;2023-02-13T14:43:50;13.40;75.10
42755;DHT22;28407;51.830;5.684;2023-02-13T14:46:23;13.40;75.20
42755;DHT22;28407;51.830;5.684;2023-02-13T14:48:36;13.40;75.10
42755;DHT22;28407;51.830;5.684;2023-02-13T14:50:51;13.40;75.10
42755;DHT22;28407;51.830;5.684;2023-02-13T14:52:53;13.40;75.10
42755;DHT22;28407;51.830;5.684;2023-02-13T14:55:02;13.40;75.10
42755;DHT22;28407;51.830;5.684;2023-02-13T14:57:06;13.40;75.10
42755;DHT22;28407;51.830;5.684;2023-02-13T14:59:22;13.40;75.00
42755;DHT22;28407;51.830;5.684;2023-02-13T15:01:31;13.40;75.60
42755;DHT22;28407;51.830;5.684;2023-02-13T15:03:43;13.40;74.90
42755;DHT22;28407;51.830;5.684;2023-02-13T15:05:50;13.40;74.90
42755;DHT22;28407;51.830;5.684;2023-02-13T15:08:11;13.40;74.90
42755;DHT22;28407;51.830;5.684;2023-02-13T15:10:49;13.40;74.90
42755;DHT22;28407;51.830;5.684;2023-02-13T15:13:01;13.30;74.90
42755;DHT22;28407;51.830;5.684;2023-02-13T15:15:29;13.30;75.00
42755;DHT22;28407;51.830;5.684;2023-02-13T15:17:33;13.30;75.00
42755;DHT22;28407;51.830;5.684;2023-02-13T15:19:44;13.20;75.10
42755;DHT22;28407;51.830;5.684;2023-02-13T15:22:06;13.20;75.10
42755;DHT22;28407;51.830;5.684;2023-02-13T15:24:13;13.20;75.10
42755;DHT22;28407;51.830;5.684;2023-02-13T15:26:21;13.10;75.10
42755;DHT22;28407;51.830;5.684;2023-02-13T15:28:23;13.10;75.20
42755;DHT22;28407;51.830;5.684;2023-02-13T15:30:29;13.00;75.20
42755;DHT22;28407;51.830;5.684;2023-02-13T15:32:32;13.00;75.20
42755;DHT22;28407;51.830;5.684;2023-02-13T15:34:34;13.00;75.30
42755;DHT22;28407;51.830;5.684;2023-02-13T15:36:39;12.90;76.00
42755;DHT22;28407;51.830;5.684;2023-02-13T15:38:40;12.90;75.40
42755;DHT22;28407;51.830;5.684;2023-02-13T15:40:41;12.90;75.50
42755;DHT22;28407;51.830;5.684;2023-02-13T15:42:43;12.80;75.40